Time;durP1;ratioP1;P1;durP2;ratioP2;P2;SDS_P1;SDS_P2;PMS_P1;PMS_P2;Temp;Humidity;BMP_temperature;BMP_pressure;BME280_temperature;BME280_humidity;BME280_pressure;Samples;Min_cycle;Max_cycle;Signal;HPM_P1;HPM_P2
2022/04/25 00:01:32;;;;;;;;;;;;;;;20.24;45.61;100225.22;5121256;27;2705;-59
2022/04/25 00:03:58;;;;;;;;;;;;;;;20.23;45.56;100230.22;5120865;27;2540;-59
2022/04/25 00:06:25;;;;;;;;;;;;;;;20.23;45.62;100232.38;5117037;27;2925;-59
2022/04/25 00:08:51;;;;;;;;;;;;;;;20.23;45.50;100238.13;5115509;27;2936;-59
2022/04/25 00:11:17;;;;;;;;;;;;;;;20.23;45.45;100246.75;5124565;27;2286;-59
2022/04/25 00:13:44;;;;;;;;;;;;;;;20.23;45.51;100238.13;5121629;27;2754;-59
2022/04/25 00:16:10;;;;;;;;;;;;;;;20.22;45.49;100233.75;5119325;27;2584;-59
2022/04/25 00:18:37;;;;;;;;;;;;;;;20.22;45.45;100233.75;5115094;27;2795;-59
2022/04/25 00:21:03;;;;;;;;;;;;;;;20.21;45.58;100238.03;5121505;27;2720;-59
2022/04/25 00:23:29;;;;;;;;;;;;;;;20.21;45.49;100232.28;5125756;27;2244;-59
2022/04/25 00:25:56;;;;;;;;;;;;;;;20.21;45.56;100238.03;5121118;27;2696;-59
2022/04/25 00:28:22;;;;;;;;;;;;;;;20.20;45.48;100248.06;5116781;27;2768;-59
2022/04/25 00:30:48;;;;;;;;;;;;;;;20.20;45.42;100245.19;5113141;27;2940;-59
2022/04/25 00:33:15;;;;;;;;;;;;;;;20.19;45.54;100252.34;5123565;27;2806;-59
2022/04/25 00:35:41;;;;;;;;;;;;;;;20.18;45.50;100248.75;5119574;27;2774;-59
2022/04/25 00:38:08;;;;;;;;;;;;;;;20.19;45.37;100252.34;5122184;27;2813;-59
2022/04/25 00:40:34;;;;;;;;;;;;;;;20.18;45.53;100247.97;5120302;27;2743;-59
2022/04/25 00:43:01;;;;;;;;;;;;;;;20.18;45.46;100259.47;5120369;27;2648;-59
2022/04/25 00:45:30;;;;;;;;;;;;;;;20.16;45.40;100247.91;5119429;28;2590;-60
2022/04/25 00:47:58;;;;;;;;;;;;;;;20.16;45.61;100253.66;5107842;28;2625;-59
2022/04/25 00:50:24;;;;;;;;;;;;;;;20.16;45.40;100254.41;5120244;28;2699;-59
2022/04/25 00:52:51;;;;;;;;;;;;;;;20.16;45.45;100242.16;5119438;28;2749;-59
2022/04/25 00:55:17;;;;;;;;;;;;;;;20.14;45.55;100251.44;5119776;28;2594;-60
2022/04/25 00:57:44;;;;;;;;;;;;;;;20.14;45.52;100250.72;5120760;28;2862;-59
2022/04/25 01:00:10;;;;;;;;;;;;;;;20.13;45.57;100249.22;5118662;28;2787;-60
2022/04/25 01:02:37;;;;;;;;;;;;;;;20.14;45.35;100256.47;5116504;28;2944;-59
2022/04/25 01:05:04;;;;;;;;;;;;;;;20.13;45.51;100240.59;5118809;28;2774;-59
2022/04/25 01:07:34;;;;;;;;;;;;;;;20.12;45.48;100254.25;5101053;28;3013;-59
2022/04/25 01:10:01;;;;;;;;;;;;;;;20.12;45.42;100244.88;5124600;28;2789;-59
2022/04/25 01:12:27;;;;;;;;;;;;;;;20.13;45.42;100246.34;5116535;28;2739;-59
2022/04/25 01:14:57;;;;;;;;;;;;;;;20.12;45.40;100247.75;5119945;28;2763;-59
2022/04/25 01:17:24;;;;;;;;;;;;;;;20.12;45.49;100253.50;5119046;28;2885;-59
2022/04/25 01:19:50;;;;;;;;;;;;;;;20.11;45.49;100252.75;5116996;28;2780;-59
2022/04/25 01:22:17;;;;;;;;;;;;;;;20.09;45.51;100249.84;5119937;28;2623;-59
2022/04/25 01:27:28;;;;;;;;;;;;;;;20.09;45.51;100256.31;5102009;28;2681;-59
2022/04/25 01:29:54;;;;;;;;;;;;;;;20.09;45.56;100255.56;5110337;28;2787;-60
2022/04/25 01:32:21;;;;;;;;;;;;;;;20.09;45.58;100244.09;5107985;28;2967;-59
2022/04/25 01:34:47;;;;;;;;;;;;;;;20.07;45.45;100247.59;5123519;28;2708;-59
2022/04/25 01:37:14;;;;;;;;;;;;;;;20.06;45.64;100243.25;5118178;28;2649;-60
2022/04/25 01:39:41;;;;;;;;;;;;;;;20.05;45.48;100244.66;5116611;28;2721;-59
2022/04/25 01:42:08;;;;;;;;;;;;;;;20.06;45.54;100246.13;5121006;27;3002;-59
2022/04/25 01:44:34;;;;;;;;;;;;;;;20.04;45.60;100248.94;5124971;27;2673;-59
2022/04/25 01:47:01;;;;;;;;;;;;;;;20.05;45.51;100249.66;5127920;27;2776;-59
2022/04/25 01:49:27;;;;;;;;;;;;;;;20.05;45.59;100261.16;5119493;27;2870;-59
2022/04/25 01:51:54;;;;;;;;;;;;;;;20.05;45.47;100256.16;5118945;27;2927;-59
2022/04/25 01:54:23;;;;;;;;;;;;;;;20.04;45.48;100248.94;5120659;27;2615;-59
2022/04/25 01:56:49;;;;;;;;;;;;;;;20.03;45.44;100258.94;5125676;27;2433;-59
2022/04/25 01:59:15;;;;;;;;;;;;;;;20.02;45.49;100257.47;5125498;27;2874;-59
2022/04/25 02:01:43;;;;;;;;;;;;;;;20.02;45.45;100248.84;5119918;27;2913;-59
2022/04/25 02:04:09;;;;;;;;;;;;;;;20.01;45.53;100261.00;5123327;27;2901;-59
2022/04/25 02:06:36;;;;;;;;;;;;;;;20.01;45.49;100255.25;5121461;27;2907;-59
2022/04/25 02:09:02;;;;;;;;;;;;;;;20.02;45.54;100259.59;5121687;27;2595;-59
2022/04/25 02:11:31;;;;;;;;;;;;;;;20.02;45.55;100253.84;5121497;27;2754;-60
2022/04/25 02:13:57;;;;;;;;;;;;;;;20.00;45.51;100248.78;5120372;27;2803;-60
2022/04/25 02:16:24;;;;;;;;;;;;;;;20.00;45.59;100259.53;5121988;27;2656;-60
2022/04/25 02:18:50;;;;;;;;;;;;;;;19.99;45.62;100264.53;5128078;27;2383;-60
2022/04/25 02:21:16;;;;;;;;;;;;;;;19.99;45.59;100267.41;5124560;27;2827;-60
2022/04/25 02:23:43;;;;;;;;;;;;;;;19.99;45.51;100253.03;5124138;27;2778;-60
2022/04/25 02:26:09;;;;;;;;;;;;;;;19.98;45.54;100268.81;5122164;27;2995;-60
2022/04/25 02:28:36;;;;;;;;;;;;;;;19.98;45.54;100265.22;5120878;27;2857;-60
2022/04/25 02:31:04;;;;;;;;;;;;;;;19.98;45.68;100263.06;5120771;27;2740;-60
2022/04/25 02:33:31;;;;;;;;;;;;;;;19.98;45.51;100271.69;5121941;27;2795;-60
2022/04/25 02:35:57;;;;;;;;;;;;;;;19.97;45.37;100267.31;5121024;27;2863;-60
2022/04/25 02:38:24;;;;;;;;;;;;;;;19.97;45.58;100266.59;5108750;27;2651;-60
2022/04/25 02:41:04;;;;;;;;;;;;;;;19.95;45.58;100270.16;5126278;27;2407;-59
2022/04/25 02:43:31;;;;;;;;;;;;;;;19.96;45.56;100270.88;5124710;27;2578;-60
2022/04/25 02:45:58;;;;;;;;;;;;;;;19.97;45.35;100270.19;5121727;27;2787;-60
2022/04/25 02:48:24;;;;;;;;;;;;;;;19.99;45.38;100276.03;5122396;27;2945;-60
2022/04/25 02:50:51;;;;;;;;;;;;;;;19.98;45.42;100279.56;5106532;27;3169;-60
2022/04/25 02:53:17;;;;;;;;;;;;;;;19.99;45.34;100281.78;5121814;27;2882;-59
2022/04/25 02:55:43;;;;;;;;;;;;;;;19.99;45.14;100287.53;5127969;27;2387;-60
2022/04/25 02:58:10;;;;;;;;;;;;;;;19.99;45.14;100281.03;5117516;27;2794;-60
2022/04/25 03:00:36;;;;;;;;;;;;;;;20.01;45.04;100281.13;5123181;27;2773;-60
2022/04/25 03:03:03;;;;;;;;;;;;;;;20.02;45.02;100291.22;5117359;27;2746;-59
2022/04/25 03:05:29;;;;;;;;;;;;;;;20.03;45.00;100284.06;5118761;27;2780;-60
2022/04/25 03:07:56;;;;;;;;;;;;;;;20.03;45.02;100281.19;5117083;27;2623;-60
2022/04/25 03:10:23;;;;;;;;;;;;;;;20.02;44.92;100289.09;5122580;27;2473;-60
2022/04/25 03:12:49;;;;;;;;;;;;;;;20.03;45.13;100281.94;5119655;27;2591;-60
2022/04/25 03:15:16;;;;;;;;;;;;;;;20.03;44.99;100287.69;5122729;27;2574;-60
2022/04/25 03:17:42;;;;;;;;;;;;;;;20.04;45.06;100289.19;5124320;27;2902;-60
2022/04/25 03:20:09;;;;;;;;;;;;;;;20.05;45.06;100295.66;5121517;27;2752;-60
2022/04/25 03:22:35;;;;;;;;;;;;;;;20.05;45.11;100302.13;5114952;27;3223;-60
2022/04/25 03:25:01;;;;;;;;;;;;;;;20.05;45.09;100296.38;5120283;27;3011;-60
2022/04/25 03:27:28;;;;;;;;;;;;;;;20.06;45.09;100300.72;5123288;27;2930;-60
2022/04/25 03:29:54;;;;;;;;;;;;;;;20.06;45.08;100303.59;5125121;27;3072;-60
2022/04/25 03:32:21;;;;;;;;;;;;;;;20.06;45.05;100303.59;5122360;27;2783;-60
2022/04/25 03:34:47;;;;;;;;;;;;;;;20.06;45.11;100308.63;5118205;27;2685;-60
2022/04/25 03:37:13;;;;;;;;;;;;;;;20.06;45.07;100300.72;5118852;27;2785;-60
2022/04/25 03:39:40;;;;;;;;;;;;;;;20.06;45.07;100303.59;5116051;27;2886;-60
2022/04/25 03:42:06;;;;;;;;;;;;;;;20.07;45.10;100316.59;5123851;27;2569;-60
2022/04/25 03:44:32;;;;;;;;;;;;;;;20.08;45.06;100318.06;5121538;27;2679;-60
2022/04/25 03:46:59;;;;;;;;;;;;;;;20.07;45.14;100310.09;5116256;27;2658;-60
2022/04/25 03:49:26;;;;;;;;;;;;;;;20.07;45.02;100319.47;5123143;27;2846;-60
2022/04/25 03:51:52;;;;;;;;;;;;;;;20.08;45.05;100317.31;5118627;27;2613;-60
2022/04/25 03:57:10;;;;;;;;;;;;;;;20.08;45.03;100328.81;5115203;27;2839;-60
2022/04/25 03:57:10;;;;;;;;;;;;;;;20.08;45.07;100323.81;5121454;27;2786;-60
2022/04/25 03:59:37;;;;;;;;;;;;;;;20.09;45.05;100325.28;5125746;27;2374;-60
2022/04/25 04:02:04;;;;;;;;;;;;;;;20.09;45.11;100321.69;5122992;27;2645;-60
2022/04/25 04:04:31;;;;;;;;;;;;;;;20.09;45.02;100330.31;5119085;27;2770;-60
2022/04/25 04:06:58;;;;;;;;;;;;;;;20.09;45.10;100325.28;5111258;27;2835;-60
2022/04/25 04:12:10;;;;;;;;;;;;;;;20.09;44.97;100333.91;5115420;27;2703;-60
2022/04/25 04:14:36;;;;;;;;;;;;;;;20.11;45.06;100338.25;5120167;27;2788;-60
2022/04/25 04:17:08;;;;;;;;;;;;;;;20.11;45.04;100332.50;5123051;27;2755;-60
2022/04/25 04:19:38;;;;;;;;;;;;;;;20.12;44.97;100345.50;5121413;27;2587;-60
2022/04/25 04:22:04;;;;;;;;;;;;;;;20.11;45.03;100349.75;5123500;27;2513;-60
2022/04/25 04:24:31;;;;;;;;;;;;;;;20.12;45.07;100351.25;5117057;27;2839;-60
2022/04/25 04:27:01;;;;;;;;;;;;;;;20.12;45.07;100359.88;5113001;27;2746;-60
2022/04/25 04:29:29;;;;;;;;;;;;;;;20.12;45.07;100357.00;5122750;27;3315;-60
2022/04/25 04:31:58;;;;;;;;;;;;;;;20.11;44.93;100355.50;5113984;27;2779;-60
2022/04/25 04:34:25;;;;;;;;;;;;;;;20.12;45.13;100365.63;5109515;27;2830;-61
2022/04/25 04:36:51;;;;;;;;;;;;;;;20.12;45.00;100368.50;5118084;27;2989;-61
2022/04/25 04:39:18;;;;;;;;;;;;;;;20.05;45.94;100365.38;5114509;27;2787;-62
2022/04/25 04:41:44;;;;;;;;;;;;;;;20.11;45.71;100367.00;5120303;27;2620;-60
2022/04/25 04:44:11;;;;;;;;;;;;;;;20.13;45.73;100375.69;5119734;27;2802;-60
2022/04/25 04:46:37;;;;;;;;;;;;;;;20.13;45.92;100378.56;5119250;28;2771;-61
2022/04/25 04:49:03;;;;;;;;;;;;;;;20.12;46.06;100377.84;5112218;28;2766;-60
2022/04/25 04:51:30;;;;;;;;;;;;;;;20.13;45.71;100387.19;5119345;28;2706;-61
2022/04/25 04:53:59;;;;;;;;;;;;;;;20.15;45.61;100384.41;5114871;28;2786;-60
2022/04/25 04:56:26;;;;;;;;;;;;;;;20.15;45.60;100390.16;5115106;28;2577;-61
2022/04/25 04:58:52;;;;;;;;;;;;;;;20.16;45.57;100397.38;5123322;28;2832;-61
2022/04/25 05:01:19;;;;;;;;;;;;;;;20.14;45.74;100394.44;5119642;28;2832;-61
2022/04/25 05:03:52;;;;;;;;;;;;;;;20.13;46.78;100398.69;5121297;28;2637;-64
2022/04/25 05:06:19;;;;;;;;;;;;;;;20.16;46.18;100401.00;5115714;28;2760;-63
2022/04/25 05:08:45;;;;;;;;;;;;;;;20.09;46.55;100400.03;5122409;28;2569;-62
2022/04/25 05:11:12;;;;;;;;;;;;;;;20.21;46.18;100407.66;5118065;28;3135;-61
2022/04/25 05:13:38;;;;;;;;;;;;;;;20.19;46.15;100407.56;5116409;28;2578;-71
2022/04/25 05:16:04;;;;;;;;;;;;;;;20.17;46.62;100413.97;5113422;27;2902;-59
2022/04/25 05:18:32;;;;;;;;;;;;;;;20.21;46.39;100413.41;5112684;27;2890;-59
2022/04/25 05:20:58;;;;;;;;;;;;;;;20.19;46.24;100414.06;5115441;27;2714;-62
2022/04/25 05:23:25;;;;;;;;;;;;;;;20.01;45.58;100416.94;5118721;27;2859;-59
2022/04/25 05:25:51;;;;;;;;;;;;;;;20.02;45.75;100418.41;5124379;27;3158;-59
2022/04/25 05:28:17;;;;;;;;;;;;;;;20.10;45.96;100420.88;5129289;27;1800;-59
2022/04/25 05:30:44;;;;;;;;;;;;;;;20.10;46.04;100412.25;5125927;27;2787;-59
2022/04/25 05:33:10;;;;;;;;;;;;;;;20.09;46.79;100428.03;5123574;27;2829;-58
2022/04/25 05:35:37;;;;;;;;;;;;;;;20.07;46.63;100422.94;5127206;27;2811;-59
2022/04/25 05:38:06;;;;;;;;;;;;;;;20.08;46.77;100441.66;5128249;27;2783;-59
2022/04/25 05:40:32;;;;;;;;;;;;;;;20.11;46.90;100430.97;5124524;27;3311;-59
2022/04/25 05:42:59;;;;;;;;;;;;;;;20.11;46.81;100436.72;5124642;27;2716;-59
2022/04/25 05:45:25;;;;;;;;;;;;;;;20.08;46.88;100435.91;5128051;27;2788;-59
2022/04/25 05:47:54;;;;;;;;;;;;;;;20.05;45.88;100440.09;5122895;27;3342;-64
2022/04/25 05:53:06;;;;;;;;;;;;;;;19.74;44.48;100448.84;5127450;27;2762;-58
2022/04/25 05:55:32;;;;;;;;;;;;;;;19.79;44.96;100453.34;5125829;27;2849;-58
2022/04/25 05:57:59;;;;;;;;;;;;;;;19.81;45.39;100454.19;5127256;27;2728;-58
2022/04/25 06:00:25;;;;;;;;;;;;;;;19.84;45.47;100460.78;5127107;27;2774;-58
2022/04/25 06:02:51;;;;;;;;;;;;;;;19.87;45.67;100460.19;5127796;27;2644;-58
2022/04/25 06:05:18;;;;;;;;;;;;;;;19.87;45.58;100470.94;5126094;27;2796;-58
2022/04/25 06:07:45;;;;;;;;;;;;;;;19.87;45.58;100470.94;5128112;27;3136;-58
2022/04/25 06:10:11;;;;;;;;;;;;;;;19.85;45.29;100465.84;5124203;27;2843;-58
2022/04/25 06:12:42;;;;;;;;;;;;;;;19.87;45.27;100473.81;5127001;27;1819;-58
2022/04/25 06:15:08;;;;;;;;;;;;;;;19.86;45.19;100483.84;5126913;27;2855;-58
2022/04/25 06:17:35;;;;;;;;;;;;;;;19.83;44.82;100470.78;5127127;27;1909;-59
2022/04/25 06:20:02;;;;;;;;;;;;;;;19.82;44.61;100480.78;5122745;27;3257;-58
2022/04/25 06:22:28;;;;;;;;;;;;;;;19.83;44.58;100482.25;5123500;27;2922;-58
2022/04/25 06:24:54;;;;;;;;;;;;;;;19.84;44.77;100478.75;5126498;27;3124;-57
2022/04/25 06:27:21;;;;;;;;;;;;;;;19.86;44.48;100489.59;5125812;27;2734;-58
2022/04/25 06:29:47;;;;;;;;;;;;;;;19.90;44.49;100492.63;5125071;27;2950;-59
2022/04/25 06:32:13;;;;;;;;;;;;;;;19.91;44.66;100496.25;5125937;27;2796;-59
2022/04/25 06:34:40;;;;;;;;;;;;;;;19.89;44.75;100491.16;5123636;27;3034;-59
2022/04/25 06:37:06;;;;;;;;;;;;;;;20.00;44.71;100490.19;5125892;27;3090;-58
2022/04/25 06:39:33;;;;;;;;;;;;;;;20.03;44.86;100500.38;5124125;27;2766;-56
2022/04/25 06:42:00;;;;;;;;;;;;;;;19.99;44.83;100497.31;5125193;27;2296;-57
2022/04/25 06:44:27;;;;;;;;;;;;;;;19.96;45.13;100501.50;5127433;27;1717;-57
2022/04/25 06:46:53;;;;;;;;;;;;;;;19.98;45.03;100504.47;5129536;27;1863;-57
2022/04/25 06:49:19;;;;;;;;;;;;;;;20.01;45.18;100503.16;5127451;27;1649;-57
2022/04/25 06:51:52;;;;;;;;;;;;;;;20.00;45.10;100498.06;5128134;27;1695;-57
2022/04/25 06:54:19;;;;;;;;;;;;;;;20.03;45.17;100506.13;5128825;27;1847;-57
2022/04/25 06:56:45;;;;;;;;;;;;;;;20.06;45.41;100504.78;5127789;27;1691;-57
2022/04/25 06:59:12;;;;;;;;;;;;;;;20.06;45.27;100512.69;5129494;27;1902;-56
2022/04/25 07:01:39;;;;;;;;;;;;;;;20.05;45.23;100509.06;5127088;27;1617;-55
2022/04/25 07:04:06;;;;;;;;;;;;;;;20.07;45.39;100509.16;5128400;27;1622;-56
2022/04/25 07:06:33;;;;;;;;;;;;;;;20.04;45.47;100507.59;5128990;27;1585;-57
2022/04/25 07:08:59;;;;;;;;;;;;;;;20.06;45.55;100507.66;5128908;27;1598;-57
2022/04/25 07:11:26;;;;;;;;;;;;;;;20.07;45.52;100512.03;5127623;27;1698;-57
2022/04/25 07:13:52;;;;;;;;;;;;;;;20.04;45.50;100516.22;5126633;27;2214;-57
2022/04/25 07:16:18;;;;;;;;;;;;;;;20.09;45.53;100525.75;5127876;27;1792;-57
2022/04/25 07:18:45;;;;;;;;;;;;;;;20.11;45.54;100516.47;5127173;27;1980;-57
2022/04/25 07:29:48;;;;;;;;;;;;;;;20.06;45.66;100545.03;5119382;27;2676;-57
2022/04/25 07:32:17;;;;;;;;;;;;;;;20.21;45.60;100537.75;5101506;27;3500;-60
2022/04/25 07:34:43;;;;;;;;;;;;;;;20.29;45.62;100538.13;5128460;27;2627;-58
2022/04/25 07:37:10;;;;;;;;;;;;;;;20.27;45.65;100540.13;5127113;27;2805;-58
2022/04/25 07:39:36;;;;;;;;;;;;;;;20.30;45.79;100539.56;5124983;27;2637;-58
2022/04/25 07:42:05;;;;;;;;;;;;;;;20.31;45.76;100546.06;5125302;27;1839;-58
2022/04/25 07:44:32;;;;;;;;;;;;;;;20.39;45.71;100539.94;5112387;27;2627;-60
2022/04/25 07:46:59;;;;;;;;;;;;;;;20.40;45.74;100545.00;5118398;27;2632;-57
2022/04/25 07:49:26;;;;;;;;;;;;;;;20.39;45.58;100552.16;5119831;27;2765;-58
2022/04/25 07:51:52;;;;;;;;;;;;;;;20.33;45.44;100560.53;5117126;27;2607;-61
2022/04/25 07:54:19;;;;;;;;;;;;;;;20.33;45.42;100560.53;5116876;27;2822;-59
2022/04/25 07:56:45;;;;;;;;;;;;;;;20.41;45.37;100572.38;5119229;27;2774;-61
2022/04/25 07:59:11;;;;;;;;;;;;;;;20.38;45.68;100565.03;5115950;27;2988;-60
2022/04/25 08:01:38;;;;;;;;;;;;;;;20.43;45.66;100572.47;5123488;27;2963;-59
2022/04/25 08:04:05;;;;;;;;;;;;;;;20.46;45.73;100568.28;5111957;27;3253;-59
2022/04/25 08:06:31;;;;;;;;;;;;;;;20.50;45.89;100579.19;5116871;27;2576;-61
2022/04/25 08:08:57;;;;;;;;;;;;;;;20.54;45.81;100572.88;5122904;27;2579;-59
2022/04/25 08:11:24;;;;;;;;;;;;;;;20.61;45.58;100577.50;5119824;27;3028;-58
2022/04/25 08:19:20;;;;;;;;;;;;;;;20.68;45.56;100576.34;5118876;27;2936;-60
2022/04/25 08:21:46;;;;;;;;;;;;;;;20.66;45.73;100576.28;5114186;27;2812;-61
2022/04/25 08:24:13;;;;;;;;;;;;;;;20.64;45.48;100579.09;5108608;27;3012;-58
2022/04/25 08:26:39;;;;;;;;;;;;;;;20.57;45.43;100583.84;5122240;27;3143;-58
2022/04/25 08:29:06;;;;;;;;;;;;;;;20.65;45.66;100577.69;5122498;27;3374;-58
2022/04/25 08:31:32;;;;;;;;;;;;;;;20.75;45.42;100583.81;5112350;27;3255;-56
2022/04/25 08:34:00;;;;;;;;;;;;;;;20.71;45.42;100590.16;5111174;27;3009;-52
2022/04/25 08:36:26;;;;;;;;;;;;;;;20.70;45.56;100585.06;5116675;27;3107;-56
2022/04/25 08:38:52;;;;;;;;;;;;;;;20.60;45.25;100587.53;5115203;27;2608;-59
2022/04/25 08:41:27;;;;;;;;;;;;;;;20.57;45.53;100594.59;5117672;27;2605;-57
2022/04/25 08:43:54;;;;;;;;;;;;;;;20.59;45.56;100591.81;5121548;27;2635;-52
2022/04/25 08:46:21;;;;;;;;;;;;;;;20.64;45.56;100593.47;5097789;28;2785;-56
2022/04/25 08:48:48;;;;;;;;;;;;;;;20.65;45.63;100595.66;5112053;28;2572;-52
2022/04/25 08:51:20;;;;;;;;;;;;;;;20.65;45.66;100597.81;5115253;27;2699;-56
2022/04/25 08:53:46;;;;;;;;;;;;;;;20.64;45.65;100604.97;5114508;28;2766;-53
2022/04/25 08:56:13;;;;;;;;;;;;;;;20.64;45.78;100604.97;5121415;28;2652;-52
2022/04/25 08:58:41;;;;;;;;;;;;;;;20.64;45.82;100599.22;5100038;28;2764;-54
2022/04/25 09:01:09;;;;;;;;;;;;;;;20.66;45.57;100599.28;5120104;28;2580;-53
2022/04/25 09:03:36;;;;;;;;;;;;;;;20.71;45.40;100612.47;5124423;28;2233;-54
2022/04/25 09:06:03;;;;;;;;;;;;;;;20.72;45.43;100605.28;5117763;28;2936;-54
2022/04/25 09:08:29;;;;;;;;;;;;;;;20.72;45.31;100611.06;5100014;28;2552;-53
2022/04/25 09:12:09;;;;;;;;;;;;;;;20.73;45.40;100608.91;5118225;28;2607;-53
2022/04/25 09:13:43;;;;;;;;;;;;;;;20.73;45.52;100618.31;5124376;28;2621;-50
2022/04/25 09:16:15;;;;;;;;;;;;;;;20.70;45.38;100620.31;5124741;28;1653;-52
2022/04/25 09:18:42;;;;;;;;;;;;;;;20.70;45.73;100625.34;5112033;28;3055;-51
2022/04/25 09:21:15;;;;;;;;;;;;;;;20.71;45.55;100621.09;5116306;28;2690;-51
2022/04/25 09:23:41;;;;;;;;;;;;;;;20.73;45.40;100629.03;5122960;28;2762;-54
2022/04/25 09:26:11;;;;;;;;;;;;;;;20.71;45.59;100627.59;5117963;28;2674;-50
2022/04/25 09:29:04;;;;;;;;;;;;;;;20.58;45.24;100625.59;5115913;28;2783;-55
2022/04/25 09:31:31;;;;;;;;;;;;;;;20.40;44.17;100628.41;5108804;28;2634;-54
2022/04/25 09:34:12;;;;;;;;;;;;;;;20.41;43.43;100629.91;5115961;28;2792;-52
2022/04/25 09:36:57;;;;;;;;;;;;;;;20.42;43.45;100631.38;5111284;28;2653;-57
2022/04/25 09:39:27;;;;;;;;;;;;;;;20.46;43.38;100634.41;5119120;28;2707;-61
2022/04/25 09:41:54;;;;;;;;;;;;;;;20.46;43.77;100642.31;5118895;28;2593;-58
2022/04/25 09:44:49;;;;;;;;;;;;;;;20.50;43.68;100634.59;5105781;28;2254;-59
2022/04/25 09:47:31;;;;;;;;;;;;;;;20.54;43.96;100630.41;5125304;28;1560;-59
2022/04/25 09:50:27;;;;;;;;;;;;;;;20.59;44.02;100637.81;5124420;28;1708;-59
2022/04/25 09:53:11;;;;;;;;;;;;;;;20.60;43.96;100639.31;5125605;28;1577;-59
2022/04/25 09:55:38;;;;;;;;;;;;;;;20.60;44.17;100634.31;5124540;28;1767;-59
2022/04/25 09:58:17;;;;;;;;;;;;;;;20.63;44.28;100632.97;5123215;28;1661;-59
2022/04/25 10:00:43;;;;;;;;;;;;;;;20.63;44.31;100632.25;5123841;28;1914;-58
2022/04/25 10:03:10;;;;;;;;;;;;;;;20.63;44.31;100632.25;5126844;27;1608;-59
2022/04/25 10:05:37;;;;;;;;;;;;;;;20.64;44.33;100636.63;5128927;27;1721;-59
2022/04/25 10:08:04;;;;;;;;;;;;;;;20.64;44.36;100633.75;5128331;27;1669;-59
2022/04/25 10:10:30;;;;;;;;;;;;;;;20.64;44.37;100634.47;5128202;27;1705;-59
2022/04/25 10:12:57;;;;;;;;;;;;;;;20.67;44.25;100638.19;5109961;27;1693;-58
2022/04/25 10:15:24;;;;;;;;;;;;;;;20.66;44.29;100630.94;5110524;27;1910;-59
2022/04/25 10:17:52;;;;;;;;;;;;;;;20.66;44.25;100642.44;5111057;27;1666;-59
2022/04/25 10:20:18;;;;;;;;;;;;;;;20.66;44.29;100642.44;5109597;27;1988;-59
2022/04/25 10:22:45;;;;;;;;;;;;;;;20.65;44.55;100641.69;5126250;27;1629;-59
2022/04/25 10:25:16;;;;;;;;;;;;;;;20.64;44.35;100646.00;5110611;27;1836;-58
2022/04/25 10:27:42;;;;;;;;;;;;;;;20.65;44.39;100652.47;5128675;27;1867;-59
2022/04/25 10:30:10;;;;;;;;;;;;;;;20.65;44.45;100640.97;5109664;27;1690;-59
2022/04/25 10:32:37;;;;;;;;;;;;;;;20.66;44.44;100642.44;5126690;27;1577;-59
2022/04/25 10:35:09;;;;;;;;;;;;;;;20.65;44.51;100644.59;5109702;27;1667;-59
2022/04/25 10:37:36;;;;;;;;;;;;;;;20.66;44.48;100646.06;5128141;27;1875;-59
2022/04/25 10:40:03;;;;;;;;;;;;;;;20.66;44.49;100637.44;5127959;27;1972;-59
2022/04/25 10:45:14;;;;;;;;;;;;;;;20.66;44.47;100637.44;5128269;27;1780;-58
2022/04/25 10:47:57;;;;;;;;;;;;;;;20.65;44.46;100641.69;5128495;27;1550;-58
2022/04/25 10:50:23;;;;;;;;;;;;;;;20.66;44.61;100640.31;5127783;27;1567;-59
2022/04/25 10:55:20;;;;;;;;;;;;;;;20.67;44.63;100638.19;5129330;27;1625;-59
2022/04/25 10:58:02;;;;;;;;;;;;;;;20.69;44.63;100632.50;5127503;27;1575;-58
2022/04/25 11:00:40;;;;;;;;;;;;;;;20.67;44.53;100649.69;5127166;27;1914;-59
2022/04/25 11:03:07;;;;;;;;;;;;;;;20.67;44.60;100650.41;5128815;27;1763;-58
2022/04/25 11:05:34;;;;;;;;;;;;;;;20.66;44.79;100642.44;5127494;27;1863;-59
2022/04/25 11:08:21;;;;;;;;;;;;;;;20.68;44.78;100656.91;5127764;27;1820;-58
2022/04/25 11:10:56;;;;;;;;;;;;;;;20.66;44.73;100646.06;5127412;27;1705;-59
2022/04/25 11:13:29;;;;;;;;;;;;;;;20.68;44.76;100657.69;5126619;27;1581;-58
2022/04/25 11:16:01;;;;;;;;;;;;;;;20.67;44.79;100664.06;5127661;27;1704;-59
2022/04/25 11:18:41;;;;;;;;;;;;;;;20.68;44.77;100662.66;5110411;27;1738;-59
2022/04/25 11:21:08;;;;;;;;;;;;;;;20.68;44.76;100668.41;5127727;27;1697;-58
2022/04/25 11:23:35;;;;;;;;;;;;;;;20.70;44.67;100682.91;5127398;27;1574;-59
2022/04/25 11:26:06;;;;;;;;;;;;;;;20.70;44.84;100677.13;5127485;27;1721;-59
2022/04/25 11:28:35;;;;;;;;;;;;;;;20.68;44.92;100680.69;5109281;27;2149;-59
2022/04/25 11:31:13;;;;;;;;;;;;;;;20.68;44.87;100680.69;5126510;27;1661;-59
2022/04/25 11:33:40;;;;;;;;;;;;;;;20.70;44.78;100680.00;5126991;27;1725;-58
2022/04/25 11:36:07;;;;;;;;;;;;;;;20.67;44.93;100679.19;5127236;27;1784;-58
2022/04/25 11:41:25;;;;;;;;;;;;;;;20.68;44.98;100685.69;5127261;27;1558;-59
2022/04/25 11:43:52;;;;;;;;;;;;;;;20.67;44.90;100684.22;5126951;27;1860;-59
2022/04/25 11:46:18;;;;;;;;;;;;;;;20.71;44.97;100690.16;5127395;27;1596;-59
2022/04/25 11:48:48;;;;;;;;;;;;;;;20.67;45.01;100684.94;5127117;27;1830;-59
2022/04/25 11:51:24;;;;;;;;;;;;;;;20.69;45.10;100698.69;5126220;27;1634;-59
2022/04/25 11:53:53;;;;;;;;;;;;;;;20.70;44.99;100688.66;5125659;27;1937;-59
2022/04/25 11:56:21;;;;;;;;;;;;;;;20.70;45.04;100691.53;5128046;27;1650;-59
2022/04/25 11:58:48;;;;;;;;;;;;;;;20.72;45.09;100694.50;5126585;27;1783;-59
2022/04/25 12:01:33;;;;;;;;;;;;;;;20.71;45.09;100695.91;5125393;27;1970;-58
2022/04/25 12:04:12;;;;;;;;;;;;;;;20.73;45.06;100689.47;5127062;27;1549;-58
2022/04/25 12:06:38;;;;;;;;;;;;;;;20.72;45.07;100691.63;5126320;27;1692;-59
2022/04/25 12:17:20;;;;;;;;;;;;;;;20.71;45.30;100713.16;5127143;27;1549;-59
2022/04/25 12:19:56;;;;;;;;;;;;;;;20.73;45.06;100710.38;5126409;27;1913;-59
2022/04/25 12:22:22;;;;;;;;;;;;;;;20.75;45.13;100707.56;5125361;27;1678;-59
2022/04/25 12:24:50;;;;;;;;;;;;;;;20.74;45.30;100711.84;5126796;27;1598;-59
2022/04/25 12:27:16;;;;;;;;;;;;;;;20.73;45.10;100707.50;5124641;27;1585;-59
2022/04/25 12:30:03;;;;;;;;;;;;;;;20.77;45.35;100704.03;5125627;27;1635;-59
2022/04/25 12:32:30;;;;;;;;;;;;;;;20.78;45.28;100711.28;5125882;27;1533;-59
2022/04/25 12:34:56;;;;;;;;;;;;;;;20.77;45.54;100701.16;5126041;27;1531;-59
2022/04/25 12:37:23;;;;;;;;;;;;;;;20.76;45.37;100714.81;5127552;27;1712;-59
2022/04/25 12:40:05;;;;;;;;;;;;;;;20.78;45.42;100714.16;5124923;27;1913;-59
2022/04/25 12:42:47;;;;;;;;;;;;;;;20.77;45.43;100713.41;5124521;27;1799;-58
2022/04/25 12:45:14;;;;;;;;;;;;;;;20.79;45.46;100718.50;5126745;27;1761;-59
2022/04/25 12:47:53;;;;;;;;;;;;;;;20.79;45.35;100710.63;5127215;27;1596;-58
2022/04/25 12:50:38;;;;;;;;;;;;;;;20.78;45.41;100714.91;5127821;28;1657;-59
2022/04/25 12:53:06;;;;;;;;;;;;;;;20.79;45.45;100709.88;5126756;28;1603;-59
2022/04/25 12:55:43;;;;;;;;;;;;;;;20.78;45.41;100714.91;5119660;28;2409;-60
2022/04/25 12:58:10;;;;;;;;;;;;;;;20.79;45.49;100715.63;5105328;28;1651;-59
2022/04/25 13:00:40;;;;;;;;;;;;;;;20.80;45.50;100709.25;5122637;28;2404;-59
2022/04/25 13:03:26;;;;;;;;;;;;;;;20.77;45.61;100710.53;5126077;28;1594;-59
2022/04/25 13:05:54;;;;;;;;;;;;;;;20.79;45.54;100712.75;5122353;28;3005;-58
2022/04/25 13:08:20;;;;;;;;;;;;;;;20.79;45.58;100710.63;5114274;28;3263;-58
2022/04/25 13:10:46;;;;;;;;;;;;;;;20.80;45.39;100702.72;5118419;28;3327;-58
2022/04/25 13:13:13;;;;;;;;;;;;;;;20.81;45.53;100707.81;5119205;28;2924;-58
2022/04/25 13:15:39;;;;;;;;;;;;;;;20.78;45.54;100709.16;5123957;28;2671;-59
2022/04/25 13:18:06;;;;;;;;;;;;;;;20.81;45.48;100707.09;5122009;28;2977;-58
2022/04/25 13:20:35;;;;;;;;;;;;;;;20.77;45.65;100722.03;5122524;28;3271;-59
2022/04/25 13:23:01;;;;;;;;;;;;;;;20.77;45.52;100709.78;5123706;28;2597;-59
2022/04/25 13:25:28;;;;;;;;;;;;;;;20.75;44.71;100716.19;5121548;28;2508;-59
2022/04/25 13:27:54;;;;;;;;;;;;;;;20.70;44.84;100714.53;5125641;28;2460;-58
2022/04/25 13:30:21;;;;;;;;;;;;;;;20.71;44.41;100721.78;5119422;28;2433;-60
2022/04/25 13:32:47;;;;;;;;;;;;;;;20.76;43.69;100717.69;5120384;28;2680;-59